createdAt,value
2019-03-27T00:00:19.437Z,83.837891
2019-03-27T00:01:19.531Z,83.837891
2019-03-27T00:02:19.644Z,83.94165
2019-03-27T00:03:19.747Z,84.356689
2019-03-27T00:04:19.843Z,84.558105
2019-03-27T00:05:19.961Z,84.661865
2019-03-27T00:06:20.065Z,84.661865
2019-03-27T00:07:20.178Z,84.765625
2019-03-27T00:08:20.289Z,84.558105
2019-03-27T00:09:20.447Z,84.49707
2019-03-27T00:10:20.600Z,85.113525
2019-03-27T00:11:20.549Z,85.015869
2019-03-27T00:12:20.668Z,85.217285
2019-03-27T00:13:20.774Z,85.632324
2019-03-27T00:14:20.942Z,85.632324
2019-03-27T00:15:21.053Z,85.736084
2019-03-27T00:16:21.160Z,85.736084
2019-03-27T00:17:21.253Z,85.839844
2019-03-27T00:18:21.354Z,85.632324
2019-03-27T00:19:21.496Z,85.632324
2019-03-27T00:20:21.638Z,85.528564
2019-03-27T00:21:21.637Z,85.528564
2019-03-27T00:22:21.768Z,85.321045
2019-03-27T00:23:21.899Z,85.217285
2019-03-27T00:24:22.009Z,85.15625
2019-03-27T00:25:22.143Z,85.26001
2019-03-27T00:26:22.254Z,85.571289
2019-03-27T00:27:22.414Z,85.986328
2019-03-27T00:28:22.363Z,86.395264
2019-03-27T00:29:22.505Z,86.090088
2019-03-27T00:30:22.672Z,85.986328
2019-03-27T00:31:22.771Z,85.986328
2019-03-27T00:32:22.873Z,86.395264
2019-03-27T00:33:22.995Z,86.706543
2019-03-27T00:34:23.122Z,86.706543
2019-03-27T00:35:23.235Z,86.810303
2019-03-27T00:36:23.363Z,86.395264
2019-03-27T00:37:23.485Z,86.499023
2019-03-27T00:38:23.603Z,86.395264
2019-03-27T00:39:23.730Z,86.602783
2019-03-27T00:40:23.902Z,86.810303
2019-03-27T00:41:23.856Z,86.541748
2019-03-27T00:42:23.961Z,86.334229
2019-03-27T00:43:24.072Z,86.334229
2019-03-27T00:44:24.176Z,86.230469
2019-03-27T00:45:26.670Z,86.230469
2019-03-27T00:46:24.402Z,86.541748
2019-03-27T00:47:24.570Z,86.645508
2019-03-27T00:48:24.567Z,86.437988
2019-03-27T00:49:24.517Z,86.474609
2019-03-27T00:50:24.685Z,86.993408
2019-03-27T00:51:24.791Z,87.719727
2019-03-27T00:52:24.894Z,87.615967
2019-03-27T00:53:25.025Z,87.823486
2019-03-27T00:54:25.124Z,87.927246
2019-03-27T00:55:25.283Z,88.342285
2019-03-27T00:56:25.392Z,88.238525
2019-03-27T00:57:25.520Z,87.823486
2019-03-27T00:58:25.620Z,87.615967
2019-03-27T00:59:25.768Z,87.823486
2019-03-27T01:00:25.909Z,87.615967
2019-03-27T01:01:25.862Z,87.823486
2019-03-27T01:02:25.974Z,87.823486
2019-03-27T01:03:26.077Z,87.719727
2019-03-27T01:04:26.227Z,87.762451
2019-03-27T01:05:26.363Z,87.866211
2019-03-27T01:06:26.475Z,87.969971
2019-03-27T01:07:26.591Z,88.482666
2019-03-27T01:08:26.705Z,88.793945
2019-03-27T01:09:26.797Z,89.105225
2019-03-27T01:10:26.970Z,89.105225
2019-03-27T01:11:26.953Z,88.690186
2019-03-27T01:12:27.051Z,89.105225
2019-03-27T01:13:27.163Z,89.416504
2019-03-27T01:14:27.278Z,89.727783
2019-03-27T01:15:39.062Z,89.831543
2019-03-27T01:16:28.492Z,89.624023
2019-03-27T01:17:27.597Z,89.520264
2019-03-27T01:18:27.729Z,89.831543
2019-03-27T01:19:27.863Z,89.416504
2019-03-27T01:20:28.005Z,89.001465
2019-03-27T01:21:27.979Z,88.73291
2019-03-27T01:22:28.090Z,88.525391
2019-03-27T01:23:28.212Z,88.317871
2019-03-27T01:24:28.339Z,88.671875
2019-03-27T01:25:28.496Z,89.086914
2019-03-27T01:26:28.610Z,89.294434
2019-03-27T01:27:28.721Z,90.124512
2019-03-27T01:28:28.845Z,90.124512
2019-03-27T01:29:28.981Z,90.332031
2019-03-27T01:30:29.115Z,90.332031
2019-03-27T01:31:29.254Z,90.124512
2019-03-27T01:32:29.362Z,90.020752
2019-03-27T01:33:29.453Z,89.813232
2019-03-27T01:34:29.563Z,89.605713
2019-03-27T01:35:30.693Z,89.916992
2019-03-27T01:36:29.811Z,90.539551
2019-03-27T01:37:29.921Z,90.539551
2019-03-27T01:38:30.027Z,90.435791
2019-03-27T01:39:30.149Z,90.124512
2019-03-27T01:40:30.250Z,89.916992
2019-03-27T01:41:30.399Z,89.813232
2019-03-27T01:42:30.507Z,90.124512
2019-03-27T01:43:30.629Z,90.228271
2019-03-27T01:44:30.726Z,90.124512
2019-03-27T01:45:30.838Z,90.124512
2019-03-27T01:46:31.931Z,90.374756
2019-03-27T01:47:31.046Z,90.478516
2019-03-27T01:48:31.170Z,90.893555
2019-03-27T01:49:31.308Z,90.997314
2019-03-27T01:50:31.407Z,90.789795
2019-03-27T01:51:31.534Z,90.686035
2019-03-27T01:52:31.641Z,91.412354
2019-03-27T01:53:31.761Z,91.619873
2019-03-27T01:54:31.898Z,91.619873
2019-03-27T01:55:32.006Z,91.308594
2019-03-27T01:56:32.021Z,91.101074
2019-03-27T01:57:32.113Z,90.997314
2019-03-27T01:58:32.245Z,90.893555
2019-03-27T01:59:32.343Z,90.722656
2019-03-27T02:00:32.443Z,90.618896
2019-03-27T02:01:32.572Z,90.722656
2019-03-27T02:02:33.699Z,90.722656
2019-03-27T02:03:32.774Z,90.826416
2019-03-27T02:04:32.885Z,91.137695
2019-03-27T02:05:32.998Z,91.241455
2019-03-27T02:06:33.184Z,91.760254
2019-03-27T02:07:33.317Z,91.760254
2019-03-27T02:08:33.450Z,91.552734
2019-03-27T02:09:33.545Z,91.345215
2019-03-27T02:10:33.646Z,91.552734
2019-03-27T02:11:33.647Z,91.552734
2019-03-27T02:12:33.843Z,91.552734
2019-03-27T02:13:33.888Z,91.760254
2019-03-27T02:14:34.010Z,91.864014
2019-03-27T02:15:34.134Z,91.864014
2019-03-27T02:16:34.270Z,91.802979
2019-03-27T02:17:34.417Z,91.802979
2019-03-27T02:18:34.551Z,91.802979
2019-03-27T02:19:34.654Z,92.218018
2019-03-27T02:20:34.772Z,93.011475
2019-03-27T02:21:34.908Z,94.049072
2019-03-27T02:22:35.021Z,94.049072
2019-03-27T02:23:35.139Z,93.841553
2019-03-27T02:24:35.247Z,93.426514
2019-03-27T02:25:35.359Z,93.322754
2019-03-27T02:26:35.498Z,93.426514
2019-03-27T02:27:35.603Z,93.322754
2019-03-27T02:28:35.731Z,93.218994
2019-03-27T02:29:35.881Z,93.157959
2019-03-27T02:30:35.998Z,93.261719
2019-03-27T02:31:35.974Z,93.322754
2019-03-27T02:32:36.092Z,93.261719
2019-03-27T02:33:36.217Z,93.054199
2019-03-27T02:34:36.317Z,92.944336
2019-03-27T02:35:36.432Z,92.944336
2019-03-27T02:36:36.561Z,92.840576
2019-03-27T02:37:36.673Z,92.736816
2019-03-27T02:38:36.778Z,92.633057
2019-03-27T02:39:36.879Z,92.633057
2019-03-27T02:40:36.999Z,92.572021
2019-03-27T02:41:37.145Z,92.779541
2019-03-27T02:42:37.275Z,92.883301
2019-03-27T02:43:37.371Z,92.779541
2019-03-27T02:44:37.472Z,92.779541
2019-03-27T02:45:37.599Z,92.883301
2019-03-27T02:46:37.745Z,92.883301
2019-03-27T02:47:37.887Z,93.096924
2019-03-27T02:48:37.943Z,92.987061
2019-03-27T02:49:38.061Z,92.883301
2019-03-27T02:50:38.148Z,92.822266
2019-03-27T02:51:38.177Z,92.822266
2019-03-27T02:52:38.267Z,92.718506
2019-03-27T02:53:38.421Z,92.614746
2019-03-27T02:54:38.537Z,92.614746
2019-03-27T02:55:38.644Z,92.614746
2019-03-27T02:56:38.808Z,92.510986
2019-03-27T02:57:38.939Z,92.510986
2019-03-27T02:58:39.048Z,92.614746
2019-03-27T02:59:39.159Z,92.718506
2019-03-27T03:00:39.267Z,92.76123
2019-03-27T03:01:39.414Z,92.76123
2019-03-27T03:02:39.483Z,92.76123
2019-03-27T03:03:39.595Z,92.76123
2019-03-27T03:04:39.707Z,92.76123
2019-03-27T03:05:39.942Z,92.657471
2019-03-27T03:06:39.966Z,92.657471
2019-03-27T03:07:40.060Z,92.76123
2019-03-27T03:08:40.159Z,92.657471
2019-03-27T03:09:40.281Z,92.657471
2019-03-27T03:10:40.410Z,92.700195
2019-03-27T03:11:40.526Z,92.596436
2019-03-27T03:12:40.637Z,92.596436
2019-03-27T03:13:40.730Z,92.596436
2019-03-27T03:14:40.825Z,92.596436
2019-03-27T03:15:40.930Z,92.596436
2019-03-27T03:16:43.008Z,92.596436
2019-03-27T03:17:41.165Z,92.700195
2019-03-27T03:18:41.269Z,92.700195
2019-03-27T03:19:41.375Z,92.596436
2019-03-27T03:20:41.481Z,92.63916
2019-03-27T03:21:41.478Z,92.63916
2019-03-27T03:22:41.571Z,92.74292
2019-03-27T03:23:41.683Z,92.74292
2019-03-27T03:24:41.800Z,92.74292
2019-03-27T03:25:41.902Z,92.74292
2019-03-27T03:26:42.044Z,92.84668
2019-03-27T03:27:42.112Z,92.84668
2019-03-27T03:28:42.208Z,92.950439
2019-03-27T03:29:42.303Z,93.054199
2019-03-27T03:30:42.421Z,93.054199
2019-03-27T03:31:42.554Z,93.157959
2019-03-27T03:32:42.654Z,93.157959
2019-03-27T03:33:42.746Z,93.267822
2019-03-27T03:34:42.847Z,93.432617
2019-03-27T03:35:42.928Z,93.640137
2019-03-27T03:36:43.060Z,93.743896
2019-03-27T03:37:44.148Z,93.847656
2019-03-27T03:38:43.233Z,93.847656
2019-03-27T03:39:43.334Z,93.743896
2019-03-27T03:40:43.441Z,93.847656
2019-03-27T03:41:43.582Z,93.951416
2019-03-27T03:42:43.683Z,94.055176
2019-03-27T03:43:43.795Z,94.055176
2019-03-27T03:44:43.895Z,94.158936
2019-03-27T03:45:43.997Z,94.158936
2019-03-27T03:46:58.674Z,94.366455
2019-03-27T03:47:45.189Z,94.677734
2019-03-27T03:48:44.284Z,94.573975
2019-03-27T03:49:44.391Z,94.573975
2019-03-27T03:50:44.517Z,94.470215
2019-03-27T03:51:44.667Z,94.470215
2019-03-27T03:52:45.932Z,94.366455
2019-03-27T03:53:44.846Z,94.573975
2019-03-27T03:54:44.947Z,94.677734
2019-03-27T03:55:45.048Z,94.573975
2019-03-27T03:56:45.185Z,94.470215
2019-03-27T03:57:45.295Z,94.366455
2019-03-27T03:58:45.406Z,94.30542
2019-03-27T03:59:45.521Z,94.20166
2019-03-27T04:00:45.635Z,94.20166
2019-03-27T04:01:45.763Z,94.20166
2019-03-27T04:02:45.880Z,94.0979
2019-03-27T04:03:45.986Z,94.0979
2019-03-27T04:04:46.096Z,94.20166
2019-03-27T04:05:46.202Z,94.720459
2019-03-27T04:06:46.343Z,94.989014
2019-03-27T04:07:46.438Z,95.721436
2019-03-27T04:08:46.565Z,95.928955
2019-03-27T04:09:46.554Z,95.928955
2019-03-27T04:10:46.660Z,96.136475
2019-03-27T04:11:46.810Z,96.30127
2019-03-27T04:12:46.911Z,96.405029
2019-03-27T04:13:47.064Z,96.508789
2019-03-27T04:14:47.176Z,96.508789
2019-03-27T04:15:47.306Z,96.508789
2019-03-27T04:16:47.474Z,96.508789
2019-03-27T04:17:47.595Z,96.508789
2019-03-27T04:18:47.698Z,96.508789
2019-03-27T04:19:47.822Z,96.569824
2019-03-27T04:20:47.932Z,96.569824
2019-03-27T04:21:48.090Z,96.569824
2019-03-27T04:22:48.226Z,96.466064
2019-03-27T04:23:48.322Z,96.466064
2019-03-27T04:24:48.436Z,96.466064
2019-03-27T04:26:07.613Z,96.466064
2019-03-27T04:26:49.669Z,96.466064
2019-03-27T04:27:48.767Z,96.466064
2019-03-27T04:28:48.913Z,96.466064
2019-03-27T04:29:49.046Z,96.417236
2019-03-27T04:30:49.161Z,96.417236
2019-03-27T04:31:49.285Z,96.417236
2019-03-27T04:32:49.408Z,96.313477
2019-03-27T04:33:49.525Z,96.313477
2019-03-27T04:34:50.634Z,96.313477
2019-03-27T04:35:49.736Z,96.313477
2019-03-27T04:36:49.903Z,96.313477
2019-03-27T04:37:50.019Z,96.209717
2019-03-27T04:38:50.138Z,96.209717
2019-03-27T04:39:50.246Z,96.270752
2019-03-27T04:40:50.350Z,96.270752
2019-03-27T04:41:50.401Z,96.270752
2019-03-27T04:42:50.535Z,96.374512
2019-03-27T04:43:50.631Z,96.374512
2019-03-27T04:44:50.752Z,96.374512
2019-03-27T04:45:50.890Z,96.374512
2019-03-27T04:46:51.018Z,96.374512
2019-03-27T04:47:51.119Z,96.270752
2019-03-27T04:48:51.221Z,96.270752
2019-03-27T04:49:51.336Z,96.270752
2019-03-27T04:50:51.459Z,96.228027
2019-03-27T04:51:51.604Z,96.228027
2019-03-27T04:52:51.702Z,96.124268
2019-03-27T04:53:51.831Z,96.124268
2019-03-27T04:54:51.935Z,96.020508
2019-03-27T04:55:52.056Z,96.063232
2019-03-27T04:56:52.181Z,95.959473
2019-03-27T04:57:52.277Z,95.959473
2019-03-27T04:58:52.399Z,95.959473
2019-03-27T04:59:52.563Z,95.855713
2019-03-27T05:00:52.660Z,95.855713
2019-03-27T05:01:52.813Z,95.959473
2019-03-27T05:02:53.897Z,95.959473
2019-03-27T05:03:53.008Z,95.855713
2019-03-27T05:04:53.104Z,95.855713
2019-03-27T05:05:53.218Z,95.855713
2019-03-27T05:06:53.412Z,95.855713
2019-03-27T05:07:53.375Z,95.751953
2019-03-27T05:08:53.483Z,95.751953
2019-03-27T05:09:53.592Z,95.751953
2019-03-27T05:10:53.714Z,95.751953
2019-03-27T05:11:53.854Z,95.855713
2019-03-27T05:12:53.974Z,95.855713
2019-03-27T05:13:54.100Z,95.751953
2019-03-27T05:14:54.223Z,95.751953
2019-03-27T05:15:54.373Z,95.709229
2019-03-27T05:16:55.513Z,95.812988
2019-03-27T05:17:54.617Z,95.709229
2019-03-27T05:18:54.716Z,95.709229
2019-03-27T05:19:54.823Z,95.709229
2019-03-27T05:20:54.874Z,95.605469
2019-03-27T05:21:54.892Z,95.605469
2019-03-27T05:22:54.882Z,95.605469
2019-03-27T05:23:54.931Z,95.605469
2019-03-27T05:24:55.068Z,95.501709
2019-03-27T05:25:55.212Z,95.501709
2019-03-27T05:26:55.382Z,95.605469
2019-03-27T05:27:55.411Z,95.709229
2019-03-27T05:28:55.431Z,95.709229
2019-03-27T05:29:55.445Z,95.709229
2019-03-27T05:30:55.599Z,95.709229
2019-03-27T05:31:55.698Z,95.916748
2019-03-27T05:32:55.848Z,95.916748
2019-03-27T05:33:55.848Z,96.020508
2019-03-27T05:34:55.888Z,96.020508
2019-03-27T05:35:55.937Z,96.020508
2019-03-27T05:36:56.013Z,96.020508
2019-03-27T05:37:56.072Z,95.916748
2019-03-27T05:38:56.121Z,96.020508
2019-03-27T05:39:56.172Z,95.977783
2019-03-27T05:40:56.225Z,95.977783
2019-03-27T05:41:56.325Z,95.977783
2019-03-27T05:43:00.773Z,95.977783
2019-03-27T05:43:56.403Z,95.977783
2019-03-27T05:44:56.451Z,95.977783
2019-03-27T05:45:56.494Z,95.977783
2019-03-27T05:46:56.634Z,95.928955
2019-03-27T05:47:59.669Z,95.825195
2019-03-27T05:48:56.736Z,95.825195
2019-03-27T05:49:56.799Z,95.825195
2019-03-27T05:50:56.842Z,95.721436
2019-03-27T05:51:56.914Z,95.721436
2019-03-27T05:52:56.992Z,95.721436
2019-03-27T05:53:57.052Z,95.617676
2019-03-27T05:54:57.106Z,95.617676
2019-03-27T05:55:57.171Z,95.574951
2019-03-27T05:56:57.250Z,95.471191
2019-03-27T05:57:57.319Z,95.471191
2019-03-27T05:58:57.368Z,95.367432
2019-03-27T05:59:57.450Z,95.367432
2019-03-27T06:00:57.518Z,95.367432
2019-03-27T06:01:57.611Z,95.367432
2019-03-27T06:02:57.675Z,95.220947
2019-03-27T06:03:57.738Z,95.117188
2019-03-27T06:04:57.778Z,95.013428
2019-03-27T06:05:57.831Z,95.013428
2019-03-27T06:06:57.910Z,94.909668
2019-03-27T06:07:57.994Z,94.909668
2019-03-27T06:08:59.071Z,94.805908
2019-03-27T06:09:58.103Z,94.702148
2019-03-27T06:10:58.136Z,94.702148
2019-03-27T06:11:58.216Z,94.494629
2019-03-27T06:12:58.252Z,94.390869
2019-03-27T06:13:58.323Z,94.287109
2019-03-27T06:14:58.367Z,93.97583
2019-03-27T06:15:58.405Z,93.97583
2019-03-27T06:16:58.480Z,93.829346
2019-03-27T06:18:12.137Z,93.829346
2019-03-27T06:18:59.586Z,93.933105
2019-03-27T06:19:58.629Z,93.725586
2019-03-27T06:20:58.725Z,93.518066
2019-03-27T06:21:58.790Z,93.518066
2019-03-27T06:22:58.921Z,93.725586
2019-03-27T06:23:58.945Z,93.829346
2019-03-27T06:24:58.987Z,93.933105
2019-03-27T06:25:59.030Z,93.933105
2019-03-27T06:26:59.095Z,94.036865
2019-03-27T06:27:59.135Z,93.994141
2019-03-27T06:28:59.178Z,93.994141
2019-03-27T06:29:59.260Z,93.994141
2019-03-27T06:30:59.320Z,93.786621
2019-03-27T06:31:59.397Z,93.682861
2019-03-27T06:32:59.455Z,93.579102
2019-03-27T06:33:59.499Z,93.475342
2019-03-27T06:35:00.547Z,93.475342
2019-03-27T06:35:59.602Z,93.225098
2019-03-27T06:36:59.664Z,93.017578
2019-03-27T06:37:59.708Z,92.547607
2019-03-27T06:38:59.791Z,92.651367
2019-03-27T06:39:59.829Z,92.852783
2019-03-27T06:40:59.872Z,92.810059
2019-03-27T06:41:59.979Z,92.755127
2019-03-27T06:43:00.026Z,92.913818
2019-03-27T06:44:00.107Z,93.017578
2019-03-27T06:45:00.351Z,93.121338
2019-03-27T06:46:00.236Z,93.121338
2019-03-27T06:47:00.295Z,93.017578
2019-03-27T06:48:00.382Z,93.017578
2019-03-27T06:49:00.420Z,93.017578
2019-03-27T06:50:00.579Z,93.017578
2019-03-27T06:51:00.540Z,92.974854
2019-03-27T06:52:00.602Z,92.871094
2019-03-27T06:53:00.650Z,92.669678
2019-03-27T06:54:00.686Z,92.669678
2019-03-27T06:55:00.727Z,92.626953
2019-03-27T06:56:00.767Z,92.626953
2019-03-27T06:57:01.217Z,92.523193
2019-03-27T06:58:00.894Z,92.211914
2019-03-27T06:59:00.931Z,92.211914
2019-03-27T07:00:00.978Z,92.211914
2019-03-27T07:01:01.017Z,92.211914
2019-03-27T07:02:01.110Z,92.169189
2019-03-27T07:03:01.150Z,92.06543
2019-03-27T07:04:10.162Z,92.06543
2019-03-27T07:05:01.263Z,92.06543
2019-03-27T07:06:01.367Z,91.85791
2019-03-27T07:07:01.444Z,91.918945
2019-03-27T07:08:01.518Z,91.607666
2019-03-27T07:09:01.559Z,91.400146
2019-03-27T07:10:01.607Z,91.296387
2019-03-27T07:11:01.650Z,90.991211
2019-03-27T07:12:01.714Z,90.991211
2019-03-27T07:13:02.740Z,90.844727
2019-03-27T07:14:01.778Z,90.844727
2019-03-27T07:15:01.820Z,90.844727
2019-03-27T07:16:01.989Z,90.533447
2019-03-27T07:17:01.895Z,89.501953
2019-03-27T07:18:02.921Z,89.501953
2019-03-27T07:19:01.996Z,89.501953
2019-03-27T07:20:02.040Z,89.666748
2019-03-27T07:21:02.074Z,89.770508
2019-03-27T07:22:02.148Z,89.770508
2019-03-27T07:23:02.193Z,89.251709
2019-03-27T07:24:02.258Z,88.116455
2019-03-27T07:25:02.307Z,88.220215
2019-03-27T07:26:02.364Z,88.38501
2019-03-27T07:27:02.436Z,87.664795
2019-03-27T07:28:02.487Z,87.768555
2019-03-27T07:29:02.532Z,87.976074
2019-03-27T07:30:02.571Z,87.976074
2019-03-27T07:31:02.617Z,88.183594
2019-03-27T07:32:02.773Z,88.287354
2019-03-27T07:33:02.828Z,87.664795
2019-03-27T07:34:03.854Z,87.561035
2019-03-27T07:35:03.050Z,87.872314
2019-03-27T07:36:02.921Z,87.664795
2019-03-27T07:37:02.987Z,87.1521
2019-03-27T07:38:03.031Z,87.1521
2019-03-27T07:39:10.685Z,87.255859
2019-03-27T07:40:03.108Z,87.1521
2019-03-27T07:41:03.148Z,87.457275
2019-03-27T07:42:03.223Z,87.976074
2019-03-27T07:43:03.290Z,87.976074
2019-03-27T07:44:03.362Z,86.94458
2019-03-27T07:45:03.398Z,86.737061
2019-03-27T07:46:03.486Z,86.94458
2019-03-27T07:47:03.524Z,86.224365
2019-03-27T07:48:03.560Z,86.529541
2019-03-27T07:49:03.606Z,86.94458
2019-03-27T07:50:03.643Z,87.561035
2019-03-27T07:51:03.699Z,87.664795
2019-03-27T07:52:03.787Z,86.59668
2019-03-27T07:53:03.830Z,86.49292
2019-03-27T07:54:03.876Z,86.077881
2019-03-27T07:55:03.913Z,85.522461
2019-03-27T07:56:04.924Z,85.009766
2019-03-27T07:57:03.995Z,83.770752
2019-03-27T07:58:04.034Z,83.563232
2019-03-27T07:59:04.106Z,84.594727
2019-03-27T08:00:04.180Z,85.113525
2019-03-27T08:01:04.218Z,84.967041
2019-03-27T08:02:04.280Z,84.558105
2019-03-27T08:03:04.322Z,83.795166
2019-03-27T08:04:04.388Z,83.074951
2019-03-27T08:05:04.417Z,82.666016
2019-03-27T08:06:04.506Z,81.530762
2019-03-27T08:07:04.597Z,81.634521
2019-03-27T08:08:05.705Z,82.458496
2019-03-27T08:09:04.738Z,82.354736
2019-03-27T08:10:04.805Z,82.910156
2019-03-27T08:11:04.841Z,83.94165
2019-03-27T08:12:04.909Z,83.074951
2019-03-27T08:13:04.955Z,82.666016
2019-03-27T08:14:05.003Z,82.214355
2019-03-27T08:15:05.049Z,81.90918
2019-03-27T08:16:05.094Z,80.633545
2019-03-27T08:17:05.180Z,79.80957
2019-03-27T08:18:05.228Z,80.01709
2019-03-27T08:19:07.614Z,80.224609
2019-03-27T08:20:05.288Z,79.876709
2019-03-27T08:21:05.327Z,78.747559
2019-03-27T08:22:05.418Z,79.052734
2019-03-27T08:23:05.461Z,78.540039
2019-03-27T08:24:05.496Z,78.643799
2019-03-27T08:25:05.541Z,78.234863
2019-03-27T08:26:05.604Z,77.923584
2019-03-27T08:27:05.703Z,78.167725
2019-03-27T08:28:05.731Z,78.369141
2019-03-27T08:29:05.780Z,79.193115
2019-03-27T08:30:05.824Z,79.089355
2019-03-27T08:31:05.864Z,80.072021
2019-03-27T08:32:05.920Z,72.888184
2019-03-27T08:33:05.979Z,71.697998
2019-03-27T08:34:06.025Z,70.098877
2019-03-27T08:35:06.070Z,68.432617
2019-03-27T08:36:06.109Z,68.969727
2019-03-27T08:37:06.169Z,68.011475
2019-03-27T08:38:06.219Z,67.669678
2019-03-27T08:39:06.263Z,69.268799
2019-03-27T08:40:06.308Z,72.20459
2019-03-27T08:41:06.346Z,73.468018
2019-03-27T08:42:06.438Z,73.571777
2019-03-27T08:43:20.132Z,73.266602
2019-03-27T08:44:07.493Z,73.913574
2019-03-27T08:45:06.666Z,73.638916
2019-03-27T08:46:06.603Z,73.504639
2019-03-27T08:47:06.676Z,72.033691
2019-03-27T08:48:06.742Z,69.512939
2019-03-27T08:49:20.628Z,68.835449
2019-03-27T08:50:07.784Z,67.504883
2019-03-27T08:51:06.838Z,68.554688
2019-03-27T08:52:06.902Z,68.182373
2019-03-27T08:53:06.974Z,67.871094
2019-03-27T08:54:07.028Z,69.647217
2019-03-27T08:55:07.068Z,68.725586
2019-03-27T08:56:07.129Z,67.596436
2019-03-27T08:57:07.258Z,67.425537
2019-03-27T08:58:07.303Z,68.170166
2019-03-27T08:59:07.345Z,69.848633
2019-03-27T09:00:07.400Z,68.487549
2019-03-27T09:01:08.442Z,66.992188
2019-03-27T09:02:07.517Z,67.297363
2019-03-27T09:03:07.577Z,67.5354
2019-03-27T09:04:07.651Z,67.327881
2019-03-27T09:05:07.733Z,67.431641
2019-03-27T09:06:07.815Z,68.145752
2019-03-27T09:07:07.891Z,67.736816
2019-03-27T09:08:07.978Z,67.572021
2019-03-27T09:09:08.086Z,65.39917
2019-03-27T09:10:08.172Z,64.111328
2019-03-27T09:11:08.221Z,62.896729
2019-03-27T09:12:08.301Z,61.212158
2019-03-27T09:13:08.378Z,59.47876
2019-03-27T09:14:08.426Z,60.424805
2019-03-27T09:15:09.464Z,60.656738
2019-03-27T09:16:08.493Z,61.853027
2019-03-27T09:17:08.561Z,61.236572
2019-03-27T09:18:08.601Z,61.730957
2019-03-27T09:19:08.634Z,62.402344
2019-03-27T09:20:08.694Z,63.818359
2019-03-27T09:21:08.740Z,64.874268
2019-03-27T09:22:08.812Z,65.045166
2019-03-27T09:23:08.851Z,64.477539
2019-03-27T09:24:08.892Z,62.06665
2019-03-27T09:25:08.930Z,61.37085
2019-03-27T09:26:09.017Z,59.069824
2019-03-27T09:27:09.141Z,59.014893
2019-03-27T09:28:09.191Z,56.70166
2019-03-27T09:29:09.217Z,57.952881
2019-03-27T09:30:09.265Z,59.838867
2019-03-27T09:31:09.334Z,60.046387
2019-03-27T09:32:09.387Z,60.070801
2019-03-27T09:33:09.456Z,61.047363
2019-03-27T09:34:09.543Z,61.688232
2019-03-27T09:35:09.585Z,62.506104
2019-03-27T09:36:09.747Z,62.432861
2019-03-27T09:37:09.707Z,63.018799
2019-03-27T09:38:09.757Z,62.06665
2019-03-27T09:39:09.804Z,61.529541
2019-03-27T09:40:09.882Z,61.37085
2019-03-27T09:41:09.908Z,59.277344
2019-03-27T09:42:10.962Z,57.922363
2019-03-27T09:43:10.001Z,56.70166
2019-03-27T09:44:10.054Z,56.469727
2019-03-27T09:45:10.091Z,55.529785
2019-03-27T09:46:10.138Z,55.859375
2019-03-27T09:47:10.205Z,56.500244
2019-03-27T09:48:10.264Z,57.977295
2019-03-27T09:49:10.333Z,58.618164
2019-03-27T09:50:10.386Z,60.71167
2019-03-27T09:51:10.431Z,61.120605
2019-03-27T09:52:10.512Z,60.81543
2019-03-27T09:53:10.598Z,58.776855
2019-03-27T09:54:10.647Z,60.510254
2019-03-27T09:55:10.722Z,59.869385
2019-03-27T09:56:18.734Z,57.958984
2019-03-27T09:57:10.891Z,58.947754
2019-03-27T09:58:10.963Z,59.179688
2019-03-27T09:59:11.045Z,58.410645
2019-03-27T10:00:11.115Z,57.263184
2019-03-27T10:01:11.167Z,58.569336
2019-03-27T10:02:11.248Z,59.924316
2019-03-27T10:03:11.306Z,59.997559
2019-03-27T10:04:11.348Z,60.302734
2019-03-27T10:05:11.390Z,61.877441
2019-03-27T10:06:11.433Z,62.298584
2019-03-27T10:07:11.498Z,56.82373
2019-03-27T10:08:11.545Z,56.726074
2019-03-27T10:09:11.593Z,57.562256
2019-03-27T10:10:11.644Z,57.25708
2019-03-27T10:11:11.692Z,57.006836
2019-03-27T10:12:12.751Z,59.375
2019-03-27T10:13:11.794Z,59.509277
2019-03-27T10:14:11.843Z,60.247803
2019-03-27T10:15:12.002Z,60.351562
2019-03-27T10:16:12.033Z,59.143066
2019-03-27T10:17:12.097Z,56.37207
2019-03-27T10:18:12.106Z,53.900146
2019-03-27T10:19:12.264Z,53.546143
2019-03-27T10:20:13.740Z,56.37207
2019-03-27T10:21:12.383Z,56.80542
2019-03-27T10:22:12.396Z,57.751465
2019-03-27T10:23:12.427Z,56.988525
2019-03-27T10:24:12.498Z,59.136963
2019-03-27T10:25:12.507Z,57.012939
2019-03-27T10:26:12.584Z,54.718018
2019-03-27T10:27:12.670Z,52.807617
2019-03-27T10:28:12.785Z,51.361084
2019-03-27T10:29:12.819Z,53.497314
2019-03-27T10:30:12.853Z,54.79126
2019-03-27T10:31:12.887Z,53.900146
2019-03-27T10:32:13.054Z,56.268311
2019-03-27T10:33:15.183Z,55.859375
2019-03-27T10:34:13.163Z,56.829834
2019-03-27T10:35:13.238Z,56.958008
2019-03-27T10:36:13.310Z,56.781006
2019-03-27T10:37:13.387Z,57.958984
2019-03-27T10:38:13.419Z,58.80127
2019-03-27T10:39:13.466Z,58.856201
2019-03-27T10:40:13.543Z,60.418701
2019-03-27T10:41:13.653Z,60.241699
2019-03-27T10:42:13.770Z,60.681152
2019-03-27T10:43:13.794Z,61.499023
2019-03-27T10:44:13.798Z,60.491943
2019-03-27T10:45:13.780Z,59.564209
2019-03-27T10:46:13.915Z,55.810547
2019-03-27T10:47:14.038Z,55.938721
2019-03-27T10:48:14.089Z,50.292969
2019-03-27T10:49:14.141Z,51.44043
2019-03-27T10:50:17.746Z,51.538086
2019-03-27T10:51:14.316Z,51.971436
2019-03-27T10:52:14.403Z,53.826904
2019-03-27T10:53:14.416Z,54.260254
2019-03-27T10:54:14.462Z,54.919434
2019-03-27T10:55:14.514Z,56.677246
2019-03-27T10:56:14.560Z,56.707764
2019-03-27T10:57:14.629Z,58.496094
2019-03-27T10:58:14.673Z,58.599854
2019-03-27T10:59:14.764Z,58.728027
2019-03-27T11:00:14.881Z,59.851074
2019-03-27T11:01:14.951Z,60.186768
2019-03-27T11:02:15.002Z,60.284424
2019-03-27T11:03:15.051Z,59.49707
2019-03-27T11:04:15.095Z,61.61499
2019-03-27T11:05:15.121Z,60.565186
2019-03-27T11:06:15.179Z,60.845947
2019-03-27T11:07:15.350Z,60.81543
2019-03-27T11:08:15.394Z,58.544922
2019-03-27T11:09:15.421Z,59.228516
2019-03-27T11:10:15.506Z,57.165527
2019-03-27T11:11:15.539Z,57.312012
2019-03-27T11:12:15.615Z,56.066895
2019-03-27T11:13:15.638Z,56.091309
2019-03-27T11:14:15.705Z,55.175781
2019-03-27T11:15:16.783Z,53.674316
2019-03-27T11:16:15.816Z,53.80249
2019-03-27T11:17:15.940Z,55.328369
2019-03-27T11:18:15.925Z,55.889893
2019-03-27T11:19:15.982Z,57.269287
2019-03-27T11:20:16.041Z,57.781982
2019-03-27T11:21:17.045Z,57.141113
2019-03-27T11:22:16.153Z,55.383301
2019-03-27T11:23:16.221Z,55.657959
2019-03-27T11:24:16.263Z,53.521729
2019-03-27T11:25:16.355Z,54.919434
2019-03-27T11:26:16.401Z,54.79126
2019-03-27T11:27:16.481Z,51.965332